Date,TemperatureHighF,TemperatureAvgF,TemperatureLowF,DewpointHighF,DewpointAvgF,DewpointLowF,HumidityHigh,HumidityAvg,HumidityLow,PressureMaxIn,PressureMinIn,WindSpeedMaxMPH,WindSpeedAvgMPH,GustSpeedMaxMPH,PrecipitationSumIn
2013-1-1,29,21,8,18,3,-20,71,48,27,29.89,29.63,18,4,22,0.00
2013-1-2,22,8,-1,5,-15,-32,56,35,21,30.10,29.84,14,3,27,0.00
2013-1-3,18,4,-4,-11,-24,-35,40,26,21,30.12,29.93,12,1,14,0.00
2013-1-4,33,18,-1,19,4,-20,63,54,40,29.94,29.73,15,1,17,0.00
2013-1-5,32,27,14,20,11,0,67,52,37,30.22,29.75,23,3,24,0.00
2013-1-6,35,24,14,23,13,0,72,63,56,30.19,29.87,7,0,7,0.00
2013-1-7,31,23,6,23,9,-8,77,56,33,30.34,29.90,14,2,16,0.00
2013-1-8,41,18,2,22,4,-12,64,55,42,30.33,30.17,9,0,10,0.00
2013-1-9,38,24,13,28,14,3,74,66,59,30.37,29.91,18,0,19,0.00
2013-1-10,40,36,28,27,20,15,70,55,46,30.51,29.94,24,5,27,0.00
2013-1-11,36,29,19,26,18,9,78,64,51,30.49,30.18,10,0,11,0.17
2013-1-12,36,34,32,32,29,26,87,84,78,30.19,30.09,2,0,3,0.04
2013-1-13,38,34,32,36,31,29,92,90,87,30.12,29.93,5,0,5,0.02
2013-1-14,52,37,32,51,31,23,98,81,56,30.24,29.84,16,1,19,0.00
2013-1-15,37,31,25,25,20,16,76,64,49,30.29,30.19,10,1,12,0.00
2013-1-16,32,28,26,25,21,18,79,75,69,30.21,29.76,4,0,5,0.00
2013-1-17,37,25,15,30,13,-9,82,64,34,30.09,29.76,13,1,16,0.00
2013-1-18,20,10,3,-9,-20,-29,47,25,21,30.35,30.05,18,2,21,0.00
2013-1-19,33,22,7,17,8,-9,66,55,47,30.29,29.80,2,0,3,0.00
2013-1-20,41,27,17,29,9,-8,75,51,21,29.87,29.47,30,5,34,0.00
2013-1-21,27,18,8,16,-2,-18,89,44,30,30.02,29.76,20,1,23,0.00
2013-1-22,22,14,-2,16,2,-18,92,64,30,30.01,29.73,22,2,23,0.00
2013-1-23,8,-2,-8,-10,-21,-31,65,41,30,30.09,29.99,18,2,21,0.00
2013-1-24,13,1,-9,-13,-24,-32,30,30,30,30.19,30.00,23,5,27,0.00
2013-1-25,19,7,-2,-8,-18,-26,30,30,30,30.25,30.02,13,2,15,0.00
2013-1-26,18,11,5,-6,-13,-20,48,33,30,30.18,29.97,17,3,20,0.00
2013-1-27,24,12,4,-3,-9,-20,60,41,30,30.42,30.17,16,2,19,0.00
2013-1-28,20,13,3,17,-2,-21,93,55,30,30.42,30.02,1,0,4,0.00
2013-1-29,34,24,10,31,22,7,100,93,81,30.16,30.02,6,0,6,0.00
2013-1-30,35,32,31,35,32,31,100,100,100,30.10,29.38,9,0,10,0.12
2013-1-31,53,38,24,53,30,0,100,77,30,29.50,28.84,35,6,50,1.00
2013-2-1,29,21,15,18,3,-11,83,49,30,30.03,29.50,20,4,22,0.00
2013-2-2,24,17,8,14,3,-6,81,56,30,30.16,29.99,12,1,13,0.00
2013-2-3,30,21,12,20,14,9,93,76,53,30.00,29.68,11,0,12,0.00
2013-2-4,29,20,13,14,2,-13,86,52,30,29.86,29.66,23,4,27,0.00
2013-2-5,28,15,4,7,-6,-19,63,39,30,29.99,29.85,14,1,15,0.00
2013-2-6,36,23,14,27,9,-12,89,58,30,30.26,29.89,23,3,27,0.00
2013-2-7,24,15,7,-4,-11,-19,30,30,30,30.50,30.25,16,2,17,0.00
2013-2-8,18,16,13,14,5,-11,93,68,30,30.45,29.81,13,1,14,0.00
2013-2-9,18,14,9,17,6,-15,99,73,30,30.18,29.75,23,5,28,0.00
2013-2-10,36,16,4,7,-8,-21,62,35,30,30.37,30.18,17,2,23,0.00
2013-2-11,25,18,6,25,14,-4,100,87,62,30.31,29.58,3,0,3,0.00
2013-2-12,42,34,24,37,31,24,100,90,72,29.80,29.57,25,4,28,0.00
2013-2-13,38,30,23,31,25,20,95,82,63,29.82,29.71,9,1,11,0.00
2013-2-14,42,28,21,32,23,19,100,83,53,29.95,29.68,14,1,15,0.00
2013-2-15,49,30,18,36,25,16,99,84,50,29.95,29.83,17,1,18,0.00
2013-2-16,38,31,22,32,20,-4,100,70,30,29.94,29.74,13,2,15,0.00
2013-2-17,22,16,11,6,-6,-15,62,36,30,29.74,29.40,24,7,31,0.00
2013-2-18,30,17,7,2,-7,-16,48,35,30,30.07,29.63,26,7,36,0.00
2013-2-19,38,25,10,32,8,-15,100,52,30,30.12,29.53,12,1,13,0.00
2013-2-20,33,28,20,32,23,11,100,80,60,29.70,29.48,25,5,30,0.00
2013-2-21,26,20,14,15,10,2,80,66,42,30.20,29.69,20,3,23,0.00
2013-2-22,39,27,13,28,20,10,98,79,51,30.38,30.20,12,1,17,0.00
2013-2-23,34,31,28,34,30,23,100,95,80,30.28,29.93,6,0,6,0.00
2013-2-24,36,32,30,36,32,30,100,100,100,29.94,29.74,0,0,5,0.00
2013-2-25,38,32,24,38,32,24,100,100,100,30.20,29.87,8,0,11,0.00
2013-2-26,38,33,31,38,33,31,100,100,100,30.31,30.16,8,0,8,0.00
2013-2-27,34,32,31,34,32,31,100,100,100,30.17,29.64,16,2,21,0.00
2013-2-28,45,34,29,45,34,29,100,100,99,29.64,29.51,5,0,6,0.00
2013-3-1,39,33,29,37,32,29,100,95,83,29.67,29.52,14,2,16,0.00
2013-3-2,39,33,28,34,30,27,100,90,77,29.67,29.60,16,3,17,0.00
2013-3-3,41,31,26,37,29,26,100,93,78,29.65,29.55,14,2,17,0.00
2013-3-4,35,28,25,28,24,21,93,85,74,29.77,29.57,16,5,20,0.00
2013-3-5,44,32,23,34,29,20,100,88,68,30.07,29.76,14,2,16,0.00
2013-3-6,36,34,31,35,32,29,100,96,87,30.18,30.06,16,2,18,0.00
2013-3-7,36,32,30,33,30,27,100,92,78,30.16,30.06,15,1,17,0.00
2013-3-8,42,32,22,37,30,21,100,93,69,30.20,30.00,8,0,8,0.00
2013-3-9,54,32,16,35,25,16,100,80,30,30.34,30.18,10,1,11,0.00
2013-3-10,49,34,20,35,28,19,100,83,51,30.38,30.23,13,2,14,0.00
2013-3-11,48,39,32,41,35,32,100,87,62,30.28,30.08,9,1,12,0.00
2013-3-12,46,39,35,46,39,35,100,99,88,30.10,29.67,15,1,18,1.06
2013-3-13,47,38,27,42,32,24,100,84,52,29.76,29.68,18,3,19,0.00
2013-3-14,36,28,17,26,14,-11,94,60,26,29.81,29.65,19,4,22,0.00
2013-3-15,38,25,14,27,7,-8,92,51,26,29.82,29.57,20,2,23,0.00
2013-3-16,36,26,16,23,8,-5,88,54,26,29.87,29.65,15,1,16,0.00
2013-3-17,35,22,14,12,1,-13,73,43,26,30.28,29.86,22,3,27,0.00
2013-3-18,38,24,7,11,-5,-20,47,29,26,30.41,30.19,10,1,11,0.00
2013-3-19,32,28,24,30,24,11,92,86,47,30.20,29.71,17,1,18,0.00
2013-3-20,38,28,21,24,20,12,94,72,47,29.73,29.63,17,3,22,0.00
2013-3-21,43,27,11,21,10,1,79,54,26,29.74,29.56,13,1,15,0.00
2013-3-22,41,28,17,23,15,4,77,58,26,29.69,29.59,14,2,16,0.00
2013-3-23,42,31,22,24,18,7,74,60,26,29.74,29.58,24,5,29,0.00
2013-3-24,47,36,26,26,23,12,74,62,26,29.81,29.73,14,2,19,0.00
2013-3-25,46,32,20,33,24,15,87,72,48,29.78,29.55,14,1,16,0.00
2013-3-26,52,38,28,32,23,7,94,62,26,29.77,29.57,18,2,19,0.00
2013-3-27,51,36,22,33,26,15,88,68,26,29.87,29.74,18,2,22,0.00
2013-3-28,51,40,32,39,33,26,100,78,52,30.00,29.86,13,1,15,0.00
2013-3-29,51,40,31,39,32,26,84,73,50,30.03,29.97,15,1,16,0.02
2013-3-30,56,39,27,34,22,4,90,57,23,30.09,29.99,16,2,18,0.00
2013-3-31,57,39,21,32,19,12,75,50,20,30.10,29.77,17,1,20,0.08
2013-4-1,54,40,30,42,29,-5,85,66,22,29.77,29.47,22,3,26,0.51
2013-4-2,38,30,23,5,-4,-10,35,23,20,29.83,29.72,22,6,27,0.00
2013-4-3,47,33,24,8,-2,-11,33,22,20,30.10,29.82,24,7,29,0.00
2013-4-4,58,39,27,17,5,-9,52,26,20,30.23,29.93,16,3,19,0.00
2013-4-5,58,41,30,26,18,7,61,41,20,29.94,29.66,17,3,23,0.00
2013-4-6,48,32,24,11,0,-12,45,25,20,30.30,29.87,20,4,24,0.00
2013-4-7,59,40,23,29,16,5,58,40,20,30.30,29.90,19,2,23,0.00
2013-4-8,63,46,33,35,28,18,81,54,20,30.08,29.91,15,2,18,0.00
2013-4-9,60,46,38,48,37,28,88,73,45,30.07,29.87,13,1,16,0.20
2013-4-10,58,48,42,49,41,36,92,78,56,29.98,29.86,11,1,12,0.78
2013-4-11,49,42,38,40,26,3,90,59,20,30.15,29.86,14,1,15,0.06
2013-4-12,38,33,31,28,22,14,83,66,40,30.19,29.85,12,1,17,0.04
2013-4-13,54,40,31,38,32,27,87,73,50,29.91,29.76,10,0,12,0.04
2013-4-14,52,41,32,35,30,25,82,68,45,30.20,29.88,15,2,17,0.00
2013-4-15,62,43,25,37,28,20,84,60,32,30.35,30.20,12,1,14,0.00
2013-4-16,64,48,32,49,38,25,82,68,43,30.36,29.96,20,2,22,0.04
2013-4-17,65,51,36,49,32,18,85,52,20,30.33,29.99,17,3,21,0.00
2013-4-18,62,46,28,34,27,21,78,51,30,30.43,30.09,16,3,19,0.00
2013-4-19,73,62,51,58,49,27,78,63,38,30.10,29.55,20,4,23,0.06
2013-4-20,63,50,37,56,31,6,83,53,20,30.19,29.59,20,4,26,0.17
2013-4-21,57,41,29,17,12,2,56,34,20,30.67,30.19,19,3,23,0.00
2013-4-22,59,40,24,25,18,5,70,45,20,30.74,30.58,17,2,21,0.00
2013-4-23,41,36,27,35,28,19,82,74,61,30.60,30.16,9,1,12,0.00
2013-4-24,80,57,39,48,39,30,88,58,20,30.16,29.71,13,1,15,0.00
2013-4-25,67,55,36,47,31,16,65,44,20,30.28,29.71,20,4,25,0.00
2013-4-26,60,45,28,36,28,20,77,54,29,30.41,30.28,12,1,13,0.00
2013-4-27,72,50,31,42,30,20,85,53,20,30.41,30.24,14,1,16,0.00
2013-4-28,75,53,33,41,32,26,82,50,20,30.32,30.15,14,1,16,0.00
2013-4-29,74,56,39,42,36,32,78,51,28,30.25,30.12,15,1,17,0.00
2013-4-30,78,62,49,40,34,21,62,39,20,30.35,30.22,13,1,16,0.00
2013-5-1,81,58,36,39,32,24,76,42,20,30.43,30.34,13,2,15,0.00
2013-5-2,84,58,40,43,34,23,76,45,20,30.49,30.31,17,1,22,0.00
2013-5-3,72,54,35,41,35,26,77,51,30,30.52,30.34,15,1,18,0.00
2013-5-4,76,57,39,46,36,27,86,52,20,30.36,30.21,15,2,17,0.00
2013-5-5,77,54,34,36,31,25,78,46,20,30.32,30.16,13,1,14,0.00
2013-5-6,80,58,36,42,34,24,82,47,20,30.25,30.07,13,1,14,0.00
2013-5-7,86,64,41,50,40,28,84,48,20,30.16,30.02,12,1,15,0.00
2013-5-8,76,63,49,64,53,43,85,71,44,30.20,30.04,13,1,16,0.08
2013-5-9,72,62,58,58,56,53,93,79,54,30.05,29.87,11,0,12,0.59
2013-5-10,78,65,57,64,56,53,90,73,43,29.94,29.87,9,0,10,0.04
2013-5-11,69,62,58,64,59,54,97,89,70,29.88,29.65,13,0,14,0.19
2013-5-12,70,58,45,59,46,27,97,67,36,29.76,29.56,19,2,23,0.02
2013-5-13,55,46,40,32,28,24,72,49,34,30.04,29.76,16,2,20,0.00
2013-5-14,65,47,34,38,27,18,85,51,20,30.05,29.94,14,2,17,0.00
2013-5-15,70,48,30,49,35,23,92,67,20,30.04,29.64,21,1,24,0.22
2013-5-16,82,62,47,54,41,29,97,56,20,29.84,29.58,20,2,25,0.00
2013-5-17,72,56,46,41,38,25,76,54,26,30.21,29.83,17,2,22,0.00
2013-5-18,77,57,40,46,38,26,86,54,20,30.29,30.19,10,0,11,0.00
2013-5-19,70,55,43,57,47,38,97,75,44,30.33,30.17,10,1,11,0.80
2013-5-20,72,61,54,63,58,52,97,88,67,30.17,29.94,8,0,8,0.10
2013-5-21,70,58,52,60,54,48,97,86,68,30.06,29.90,11,1,16,0.37
2013-5-22,62,56,52,57,53,49,97,91,77,30.00,29.89,8,0,9,0.55
2013-5-23,68,60,53,67,58,52,97,94,82,29.91,29.74,9,0,10,0.04
2013-5-24,69,61,49,68,55,42,97,83,55,29.86,29.61,13,1,16,0.88
2013-5-25,49,46,36,48,42,33,97,87,76,29.86,29.74,14,2,19,0.97
2013-5-26,61,47,37,44,37,34,92,72,47,30.05,29.71,18,3,22,0.09
2013-5-27,73,53,34,45,35,25,90,58,20,30.19,30.04,19,2,22,0.00
2013-5-28,76,57,38,46,39,31,88,56,25,30.25,30.12,13,1,14,0.00
2013-5-29,57,54,52,56,51,41,97,90,65,30.16,29.99,4,0,5,0.38
2013-5-30,88,69,54,70,60,53,97,77,37,30.05,29.98,15,1,17,0.02
2013-5-31,95,75,58,67,60,54,92,64,27,30.08,29.90,12,1,15,0.00
2013-6-1,94,77,62,67,61,57,89,62,31,29.95,29.81,13,1,15,0.00
2013-6-2,92,74,67,70,65,58,95,75,37,29.84,29.63,25,1,29,0.55
2013-6-3,84,70,59,66,57,45,97,69,34,29.82,29.72,16,1,19,0.00
2013-6-4,72,59,46,46,42,40,84,57,33,30.09,29.81,14,2,21,0.00
2013-6-5,79,60,45,48,41,32,86,54,20,30.18,30.06,9,1,10,0.00
2013-6-6,77,63,52,53,46,40,75,56,32,30.20,30.07,9,1,11,0.00
2013-6-7,59,54,52,53,51,46,97,88,66,30.10,29.89,8,0,9,0.71
2013-6-8,72,61,53,62,56,51,97,84,62,30.00,29.70,10,1,12,0.62
2013-6-9,80,66,55,58,53,48,91,67,36,30.17,30.00,11,1,14,0.00
2013-6-10,72,61,51,59,54,47,90,77,56,30.20,30.01,8,0,9,0.18
2013-6-11,60,57,55,57,55,53,97,94,88,30.02,29.59,10,0,11,0.94
2013-6-12,72,61,55,57,54,51,97,79,50,29.82,29.56,15,1,16,0.02
2013-6-13,68,58,50,58,53,46,97,83,55,29.81,29.70,7,0,8,0.16
2013-6-14,81,63,55,59,54,45,97,75,31,29.78,29.67,10,0,12,0.00
2013-6-15,82,64,50,52,46,36,88,58,23,29.93,29.78,12,1,14,0.00
2013-6-16,76,61,49,60,52,44,93,75,43,29.93,29.70,11,0,11,0.04
2013-6-17,84,65,54,62,56,51,97,75,37,29.89,29.75,20,1,20,0.02
2013-6-18,63,59,54,57,54,51,91,84,71,29.99,29.88,6,0,7,0.04
2013-6-19,79,61,47,55,46,37,97,63,25,30.16,29.94,11,1,12,0.00
2013-6-20,83,62,45,52,46,38,87,59,23,30.26,30.15,10,0,12,0.00
2013-6-21,88,67,51,58,51,45,85,61,28,30.23,30.17,9,0,10,0.00
2013-6-22,86,69,57,67,59,52,85,71,44,30.22,30.07,8,0,8,0.02
2013-6-23,86,72,65,76,67,61,97,85,66,30.13,29.92,9,0,26,0.72
2013-6-24,94,74,66,73,68,64,97,83,40,29.99,29.86,12,1,14,0.32
2013-6-25,90,74,65,72,67,63,97,80,43,29.94,29.73,14,0,17,0.19
2013-6-26,77,70,65,73,68,63,97,94,80,29.85,29.73,4,0,4,0.53
2013-6-27,74,68,64,68,65,63,97,91,76,29.85,29.76,7,0,8,0.00
2013-6-28,66,62,58,65,61,56,97,95,90,29.77,29.49,15,0,18,1.10
2013-6-29,84,71,64,74,66,63,97,86,58,29.62,29.46,13,1,15,0.02
2013-6-30,85,72,63,74,67,62,98,84,56,29.93,29.62,7,1,8,0.15
2013-7-1,79,72,66,73,69,65,98,92,78,30.06,29.93,6,0,6,0.09
2013-7-2,75,67,62,73,66,61,98,95,88,30.22,30.05,8,1,8,0.83
2013-7-3,89,72,62,79,68,61,98,89,59,30.21,30.09,5,1,7,0.03
2013-7-4,92,79,67,79,72,66,98,82,51,30.19,30.04,7,1,7,0.00
2013-7-5,93,80,70,79,73,68,98,80,53,30.14,30.01,7,1,8,0.01
2013-7-6,88,78,68,74,70,65,96,78,54,30.06,29.96,9,1,10,0.00
2013-7-7,88,75,65,75,69,64,97,84,52,30.02,29.90,4,0,4,0.02
2013-7-8,82,73,67,77,71,66,97,93,71,30.08,29.92,4,0,7,0.81
2013-7-9,76,70,66,72,68,65,98,92,82,30.12,30.05,6,0,6,0.01
2013-7-10,73,69,66,71,67,65,98,95,91,30.08,29.78,7,1,7,0.93
2013-7-11,84,72,64,75,69,62,99,91,63,29.98,29.75,8,0,9,0.00
2013-7-12,84,70,60,68,62,57,97,78,46,30.23,29.98,7,1,7,0.01
2013-7-13,80,69,59,70,64,58,97,86,62,30.33,30.23,4,0,4,0.00
2013-7-14,88,75,66,79,71,65,98,87,62,30.31,30.20,5,0,5,0.00
2013-7-15,92,77,66,79,70,65,98,81,48,30.22,30.10,9,1,9,0.00
2013-7-16,92,77,66,78,69,64,96,78,50,30.18,30.12,9,1,10,0.00
2013-7-17,95,79,65,80,71,64,97,78,44,30.19,29.96,8,1,8,0.36
2013-7-18,92,77,69,81,73,68,99,89,53,30.03,29.93,3,1,5,0.09
2013-7-19,94,80,70,82,73,69,99,81,48,29.94,29.67,10,1,15,0.04
2013-7-20,87,76,67,75,69,65,97,81,56,29.80,29.63,11,1,11,0.04
2013-7-21,82,71,62,69,65,60,97,82,51,30.01,29.80,7,0,7,0.00
2013-7-22,75,68,61,70,65,60,97,90,81,30.04,29.91,7,0,7,0.05
2013-7-23,74,66,63,73,65,62,98,96,85,29.91,29.55,3,0,4,1.84
2013-7-24,78,69,54,75,61,48,100,77,62,30.01,29.61,13,2,13,0.01
2013-7-25,73,61,48,63,54,46,96,80,56,30.12,30.00,8,1,8,0.00
2013-7-26,77,66,61,72,63,59,98,92,70,30.11,29.95,6,0,7,0.24
2013-7-27,86,70,57,71,61,55,98,79,41,30.05,29.97,7,1,8,0.00
2013-7-28,83,69,58,72,65,57,99,88,63,30.03,29.96,8,1,8,0.05
2013-7-29,83,70,63,73,67,62,98,90,63,30.06,29.95,8,1,9,0.19
2013-7-30,79,67,57,67,60,54,98,80,45,30.10,30.03,13,1,13,0.00
2013-7-31,83,67,54,67,59,53,97,77,39,30.16,30.03,6,1,6,0.00
2013-8-1,82,67,57,66,61,55,95,82,45,30.05,29.86,8,1,9,0.45
2013-8-2,81,70,61,71,61,53,95,77,42,29.86,29.76,10,1,12,0.03
2013-8-3,79,66,57,64,57,52,93,75,44,29.85,29.75,13,1,13,0.03
2013-8-4,75,63,53,63,55,51,93,77,51,29.91,29.79,12,1,12,0.00
2013-8-5,74,61,50,53,47,33,93,64,24,30.07,29.90,11,2,14,0.00
2013-8-6,80,62,46,58,51,44,92,71,36,30.16,30.06,4,1,9,0.00
2013-8-7,81,65,51,62,55,48,93,72,42,30.20,30.08,12,1,12,0.00
2013-8-8,83,71,62,72,64,57,89,80,59,30.10,29.97,8,1,8,0.03
2013-8-9,74,71,66,72,69,64,95,93,88,30.00,29.73,7,0,7,0.73
2013-8-10,80,68,55,64,57,44,96,72,36,30.03,29.77,12,1,15,0.00
2013-8-11,78,62,48,63,53,46,93,75,39,30.08,29.99,6,0,8,0.00
2013-8-12,81,66,53,64,57,51,94,75,42,30.03,29.91,9,0,9,0.00
2013-8-13,69,63,56,66,60,54,95,93,87,29.93,29.69,3,0,3,0.51
2013-8-14,75,64,53,64,56,50,95,76,49,29.95,29.66,12,2,12,0.00
2013-8-15,75,60,47,58,51,45,94,74,42,30.11,29.95,10,1,12,0.00
2013-8-16,80,62,48,61,54,46,94,76,36,30.20,30.10,8,0,8,0.00
2013-8-17,80,64,51,65,56,49,94,76,42,30.29,30.20,9,1,9,0.00
2013-8-18,77,64,53,67,58,50,93,82,58,30.29,30.08,4,0,4,0.00
2013-8-19,83,68,54,67,59,52,94,77,44,30.08,29.93,10,1,11,0.00
2013-8-20,85,70,57,69,61,55,94,76,40,30.10,29.99,9,1,9,0.00
2013-8-21,88,71,58,71,62,56,94,76,41,30.15,30.01,6,1,6,0.00
2013-8-22,88,71,59,71,62,57,93,77,39,30.02,29.80,9,1,9,0.01
2013-8-23,80,68,55,66,56,46,92,69,34,30.16,29.82,10,1,10,0.00
2013-8-24,79,61,47,57,49,40,92,69,29,30.34,30.16,7,1,7,0.00
2013-8-25,82,64,47,62,53,45,93,71,33,30.38,30.15,10,1,10,0.00
2013-8-26,78,68,61,71,64,57,94,88,73,30.18,29.87,4,0,4,0.23
2013-8-27,85,73,66,72,67,64,94,82,56,29.90,29.83,6,0,6,0.00
2013-8-28,88,72,65,72,66,62,95,83,45,30.02,29.84,9,1,10,0.53
2013-8-29,69,65,62,65,63,60,95,92,83,30.08,29.97,5,0,5,0.00
2013-8-30,85,71,62,72,64,60,93,81,51,30.04,29.79,8,1,8,0.00
2013-8-31,81,72,67,72,68,65,95,88,69,29.82,29.74,6,0,7,0.19
2013-9-1,84,74,66,74,69,64,95,87,61,29.87,29.77,7,0,8,0.16
2013-9-2,75,70,68,72,68,66,95,93,82,29.86,29.72,8,0,8,0.82
2013-9-3,75,68,61,70,64,58,95,89,71,29.80,29.70,4,0,5,0.00
2013-9-4,80,66,55,61,57,52,95,74,42,29.91,29.79,10,1,11,0.00
2013-9-5,70,60,45,60,49,38,93,72,34,30.18,29.86,10,1,13,0.02
2013-9-6,70,54,40,52,43,37,93,72,35,30.26,30.08,8,1,8,0.00
2013-9-7,76,59,46,58,50,44,93,76,41,30.09,29.84,8,0,8,0.00
2013-9-8,66,58,44,58,48,40,92,72,44,30.10,29.76,8,1,15,0.01
2013-9-9,72,55,39,52,44,36,93,71,31,30.24,30.10,9,1,9,0.00
2013-9-10,70,58,49,65,56,46,94,91,84,30.14,30.02,3,0,3,0.15
2013-9-11,94,75,63,78,68,61,94,81,46,30.07,29.90,10,1,11,0.11
2013-9-12,80,70,66,74,67,64,95,91,76,29.96,29.65,9,0,9,0.46
2013-9-13,73,64,57,68,61,52,95,89,71,29.78,29.60,8,1,9,0.36
2013-9-14,65,56,47,54,51,45,93,81,64,30.06,29.77,11,2,11,0.00
2013-9-15,72,56,41,54,48,39,94,76,42,30.16,30.01,8,1,8,0.00
2013-9-16,64,54,41,56,48,36,93,80,56,30.29,29.99,10,1,12,0.03
2013-9-17,66,49,35,48,40,33,93,73,38,30.45,30.29,8,1,8,0.00
2013-9-18,74,54,40,55,45,37,94,75,28,30.34,30.13,7,1,8,0.00
2013-9-19,82,58,43,58,48,34,94,75,22,30.15,30.03,6,0,7,0.00
2013-9-20,80,60,46,59,52,44,95,76,36,30.12,29.99,6,1,7,0.00
2013-9-21,77,62,52,62,56,50,94,82,50,30.02,29.68,11,1,11,0.00
2013-9-22,70,61,49,63,54,42,94,78,52,29.84,29.57,10,2,10,0.58
2013-9-23,59,50,45,43,41,38,83,69,53,30.01,29.84,16,3,17,0.00
2013-9-24,65,53,45,46,42,38,85,67,45,30.00,29.84,15,2,15,0.00
2013-9-25,66,55,44,51,46,42,92,75,53,30.02,29.89,14,1,14,0.00
2013-9-26,71,54,40,51,45,37,94,76,43,30.17,30.01,9,1,9,0.00
2013-9-27,72,57,47,56,50,45,92,79,46,30.29,30.17,5,0,5,0.00
2013-9-28,77,57,44,58,49,42,95,78,41,30.37,30.27,7,0,7,0.00
2013-9-29,74,56,46,56,49,44,95,80,45,30.29,30.11,6,1,7,0.00
2013-9-30,75,55,44,55,48,41,95,79,42,30.14,29.98,5,1,7,0.00
2013-10-1,78,59,44,58,50,43,95,78,35,30.00,29.85,10,1,10,0.00
2013-10-2,80,62,48,61,54,46,94,77,46,29.95,29.81,11,2,11,0.00
2013-10-3,78,60,46,55,49,44,94,74,32,30.09,29.95,9,1,9,0.00
2013-10-4,70,56,44,55,50,42,93,81,51,30.11,30.03,4,0,4,0.00
2013-10-5,65,60,56,55,50,44,91,74,50,30.14,30.07,7,0,7,0.00
2013-10-6,57,52,49,54,46,38,93,80,55,30.27,30.13,9,1,9,0.16
2013-10-7,68,56,50,66,54,48,95,92,78,30.18,29.71,12,1,12,0.50
2013-10-8,65,52,38,50,42,35,94,70,36,30.41,29.90,9,2,14,0.00
2013-10-9,67,46,33,47,39,31,95,78,40,30.52,30.39,8,0,8,0.00
2013-10-10,66,50,39,49,44,37,95,81,50,30.40,30.21,5,0,5,0.00
2013-10-11,72,54,44,53,46,42,93,80,39,30.21,30.13,6,0,6,0.00
2013-10-12,57,50,40,52,47,38,94,89,84,30.43,30.21,10,0,10,0.00
2013-10-13,57,50,43,49,46,41,95,85,71,30.48,30.40,4,0,4,0.00
2013-10-14,69,54,42,54,48,41,94,81,55,30.40,30.23,6,0,6,0.00
2013-10-15,65,58,52,55,53,49,92,82,65,30.28,30.18,6,0,6,0.00
2013-10-16,64,56,49,52,50,46,92,81,60,30.18,29.90,7,0,7,0.00
2013-10-17,74,57,47,55,48,45,93,76,37,29.90,29.70,10,1,10,0.01
2013-10-18,65,56,47,53,48,37,94,76,49,29.89,29.60,11,2,13,0.27
2013-10-19,68,52,36,47,41,33,92,69,37,29.96,29.73,9,1,10,0.00
2013-10-20,62,51,38,46,38,30,92,64,35,29.99,29.67,15,3,16,0.00
2013-10-21,65,47,32,46,38,30,92,74,40,30.10,29.95,9,1,9,0.00
2013-10-22,55,46,35,51,42,33,94,88,66,29.95,29.70,5,0,5,0.05
2013-10-23,58,42,34,39,34,28,94,75,38,29.78,29.58,7,1,7,0.01
2013-10-24,50,42,33,36,31,28,90,67,47,29.86,29.64,14,2,14,0.00
2013-10-25,48,38,30,34,29,25,92,72,43,30.12,29.86,16,2,22,0.00
2013-10-26,49,39,27,35,30,24,90,72,44,30.13,29.84,15,1,16,0.00
2013-10-27,57,42,29,37,32,26,88,70,35,30.04,29.77,16,2,18,0.00
2013-10-28,54,38,27,36,28,22,90,71,45,30.36,30.03,15,1,20,0.00
2013-10-29,49,32,21,27,19,5,88,65,18,30.47,30.36,11,1,11,0.00
2013-10-30,52,36,26,34,27,20,89,73,47,30.37,30.19,10,1,11,0.00
2013-10-31,45,38,29,43,35,26,93,90,81,30.26,29.73,3,0,3,0.36
2013-11-1,68,60,45,61,53,41,94,79,48,29.73,29.34,16,2,19,0.47
2013-11-2,64,49,35,46,41,33,93,76,44,29.78,29.58,9,1,9,0.05
2013-11-3,43,36,27,35,22,13,86,59,31,30.44,29.78,14,3,15,0.00
2013-11-4,44,30,21,21,17,12,84,62,29,30.73,30.44,8,1,8,0.00
2013-11-5,51,33,21,29,24,17,87,72,38,30.73,30.50,8,1,8,0.00
2013-11-6,61,44,31,44,36,27,89,73,49,30.50,29.97,10,1,10,0.00
2013-11-7,56,49,39,54,43,28,91,80,65,29.98,29.66,11,2,12,0.10
2013-11-8,44,36,26,34,25,21,86,65,50,30.05,29.80,14,3,14,0.00
2013-11-9,45,37,33,28,23,19,74,56,39,30.17,30.01,14,2,16,0.00
2013-11-10,42,36,32,38,33,27,92,89,70,30.01,29.72,11,0,11,0.00
2013-11-11,49,40,35,33,29,23,84,64,38,30.07,29.83,14,3,15,0.00
2013-11-12,43,32,27,34,20,14,86,63,50,30.17,29.84,15,5,15,0.00
2013-11-13,27,24,22,15,14,13,68,63,58,30.26,30.17,14,4,14,0.00
2013-11-14,48,33,24,29,23,16,87,68,46,30.10,30.02,8,2,4,0.00
2013-11-15,57,34,23,32,24,18,88,71,25,30.20,30.09,4,0,4,0.00
2013-11-16,62,38,28,32,27,22,87,69,24,30.33,30.18,4,0,4,0.00
2013-11-17,44,36,26,42,33,23,93,90,83,30.33,29.86,3,0,3,0.26
2013-11-18,62,51,42,54,41,30,94,72,43,29.86,29.47,17,3,19,0.39
2013-11-19,46,35,29,30,20,15,74,54,43,30.29,29.61,21,6,23,0.00
2013-11-20,40,30,21,18,15,9,80,56,29,30.65,30.29,13,2,19,0.00
2013-11-21,48,30,17,22,16,7,86,63,19,30.66,30.36,7,0,7,0.00
2013-11-22,37,34,29,35,30,21,93,86,71,30.37,29.80,3,0,3,0.10
2013-11-23,40,34,24,36,24,14,93,70,36,29.92,29.74,18,4,20,0.01
2013-11-24,24,20,15,17,5,-2,80,54,40,30.18,29.77,28,7,35,0.00
2013-11-25,29,21,12,14,2,-8,65,45,24,30.36,30.17,14,2,16,0.00
2013-11-26,35,27,24,29,21,13,89,78,62,30.31,30.06,4,0,5,0.00
2013-11-27,41,36,32,39,33,28,94,90,77,30.06,29.22,16,2,18,0.86
2013-11-28,35,26,14,28,14,5,78,60,38,30.38,29.37,24,5,29,0.00
2013-11-29,30,18,11,12,8,5,85,67,38,30.73,30.37,13,2,13,0.00
2013-11-30,32,20,6,17,10,2,85,66,40,30.79,30.39,9,1,9,0.00
2013-12-1,38,32,27,29,24,16,83,71,62,30.40,30.01,6,0,6,0.00
2013-12-2,43,36,32,35,31,28,89,83,73,30.01,29.87,3,0,3,0.00
2013-12-3,48,36,30,35,30,26,92,82,48,29.90,29.82,10,1,10,0.00
2013-12-4,42,33,25,29,24,22,88,72,54,30.16,29.90,15,2,15,0.00
2013-12-5,35,33,25,33,30,22,93,88,78,30.19,29.87,3,0,3,0.00
2013-12-6,45,39,34,40,34,25,94,84,67,30.10,29.82,9,1,10,0.00
2013-12-7,35,31,20,29,20,12,86,64,42,30.40,30.04,16,3,16,0.00
2013-12-8,29,25,20,16,13,10,81,61,44,30.54,30.40,9,1,9,0.00
2013-12-9,28,26,23,25,20,13,90,80,58,30.47,29.83,5,1,9,0.00
2013-12-10,35,26,16,30,20,10,91,80,55,29.89,29.72,13,1,13,0.00
2013-12-11,30,21,10,20,12,7,89,71,47,30.10,29.89,15,2,15,0.00
2013-12-12,20,11,2,12,2,-2,86,69,38,30.24,29.98,15,1,15,0.00
2013-12-13,24,10,0,15,2,-6,85,70,50,30.40,29.90,19,2,19,0.00
2013-12-14,15,8,2,7,-3,-9,82,60,39,30.58,30.23,10,1,10,0.00
2013-12-15,29,20,11,25,15,7,86,82,69,30.23,29.43,17,1,17,0.00
2013-12-16,23,14,1,14,4,-6,88,66,41,30.19,29.65,16,3,16,0.00
2013-12-17,13,5,-8,9,-1,-13,83,73,53,30.26,29.99,6,0,7,0.00
2013-12-18,32,20,13,20,14,8,87,78,58,30.01,29.86,13,1,13,0.00
2013-12-19,37,27,17,27,21,14,88,80,55,30.04,29.89,8,0,8,0.00
2013-12-20,38,33,30,31,29,26,90,85,76,30.07,29.87,2,0,4,0.00
2013-12-21,39,35,34,35,32,31,92,90,85,29.89,29.81,3,0,3,0.06
2013-12-22,38,34,31,36,32,29,92,91,90,30.01,29.76,6,1,9,0.18
2013-12-23,34,33,31,32,30,29,93,92,91,30.08,29.93,6,0,6,0.25
2013-12-24,33,27,14,31,18,6,90,70,52,30.19,30.02,12,3,13,0.00
2013-12-25,22,12,6,8,2,-4,83,65,46,30.50,30.19,14,2,16,0.00
2013-12-26,23,17,12,19,12,7,87,84,79,30.46,30.08,3,0,3,0.00
2013-12-27,34,20,9,22,14,6,90,79,54,30.20,30.12,13,1,14,0.00
2013-12-28,41,26,12,31,22,8,89,82,63,30.15,29.92,8,1,8,0.00
2013-12-29,34,30,24,31,27,21,91,89,85,29.98,29.52,3,0,3,0.00
2013-12-30,35,25,6,32,20,-2,92,80,67,30.16,29.50,13,2,15,0.00
2013-12-31,19,7,-1,8,0,-6,85,73,53,30.15,29.99,6,0,10,0.00
2014-1-1,23,8,-5,9,1,-10,86,72,50,30.37,30.10,13,2,13,0.00
2014-1-2,11,7,1,6,1,-4,81,77,62,30.36,29.92,7,1,8,0.00